Time,TemperatureF,DewpointF,PressureIn,WindDirection,WindDirectionDegrees,WindSpeedMPH,WindSpeedGustMPH,Humidity,HourlyPrecipIn,Conditions,Clouds,dailyrainin,SoftwareType,DateUTC
2013-03-22 00:00:00,20.0,-99.9,-100.00,North,-999,-999.0,-999.0,-999,-99.99,,,-99.99,,2013-03-22 07:00:00,
2013-03-22 00:52:00,20.0,-99.9,-100.00,North,-999,-999.0,-999.0,-999,-99.99,,,-99.99,,2013-03-22 07:52:00,
2013-03-22 01:00:00,19.0,-99.9,-100.00,NE,38,0.0,2.0,-999,-99.99,,,0.01,,2013-03-22 08:00:00,
2013-03-22 02:00:00,19.0,-99.9,-100.00,ESE,113,0.0,1.0,-999,-99.99,,,-99.99,,2013-03-22 09:00:00,
2013-03-22 03:00:00,18.0,-99.9,-100.00,ESE,117,0.0,1.0,-999,-99.99,,,0.01,,2013-03-22 10:00:00,
2013-03-22 07:00:00,16.0,-99.9,-100.00,East,82,0.0,2.0,-999,-99.99,,,0.01,,2013-03-22 14:00:00,
2013-03-22 07:52:00,16.0,-99.9,-100.00,East,82,0.0,2.0,-999,-99.99,,,0.01,,2013-03-22 14:52:00,
2013-03-22 08:00:00,16.0,-99.9,-100.00,NE,47,0.0,1.0,-999,-99.99,,,0.01,,2013-03-22 15:00:00,
2013-03-22 08:53:00,16.0,-99.9,-100.00,NE,47,0.0,1.0,-999,-99.99,,,0.01,,2013-03-22 15:53:00,
2013-03-22 09:00:00,19.0,-99.9,-100.00,East,96,0.0,1.0,-999,-99.99,,,0.01,,2013-03-22 16:00:00,
2013-03-22 10:00:00,25.0,-99.9,-100.00,SSW,195,1.0,3.0,-999,-99.99,,,0.00,,2013-03-22 17:00:00,
2013-03-22 11:00:00,28.0,-99.9,-100.00,East,95,0.0,1.0,-999,-99.99,,,0.00,,2013-03-22 18:00:00,
2013-03-22 12:00:00,28.0,-99.9,-100.00,SE,143,0.0,2.0,-999,-99.99,,,0.00,,2013-03-22 19:00:00,
2013-03-22 13:00:00,29.0,-99.9,-100.00,South,169,3.0,86.0,-999,-99.99,,,0.00,,2013-03-22 20:00:00,
2013-03-22 14:00:00,28.0,-99.9,-100.00,North,4,1.0,3.0,-999,-99.99,,,0.00,,2013-03-22 21:00:00,
2013-03-22 15:00:00,24.0,-99.9,-100.00,West,278,1.0,4.0,-999,-99.99,,,0.00,,2013-03-22 22:00:00,
2013-03-22 16:00:00,23.0,-99.9,-100.00,NW,313,2.0,5.0,-999,-99.99,,,0.00,,2013-03-22 23:00:00,
2013-03-22 17:00:00,23.0,-99.9,-100.00,WNW,296,4.0,7.0,-999,-99.99,,,0.00,,2013-03-23 00:00:00,
2013-03-22 18:00:00,22.0,-99.9,-100.00,North,5,4.0,8.0,-999,-99.99,,,0.00,,2013-03-23 01:00:00,
2013-03-22 19:00:00,21.0,-99.9,-100.00,NW,305,3.0,5.0,-999,-99.99,,,0.00,,2013-03-23 02:00:00,
2013-03-22 20:00:00,20.0,-99.9,-100.00,West,272,3.0,7.0,-999,-99.99,,,0.00,,2013-03-23 03:00:00,
2013-03-22 21:00:00,19.0,-99.9,-100.00,SW,218,2.0,8.0,-999,-99.99,,,0.00,,2013-03-23 04:00:00,
2013-03-22 22:00:00,18.0,-99.9,-100.00,WSW,247,3.0,4.0,-999,-99.99,,,0.00,,2013-03-23 05:00:00,
2013-03-22 23:00:00,18.0,-99.9,-100.00,WNW,298,5.0,9.0,-999,-99.99,,,0.00,,2013-03-23 06:00:00,